Terminal Aerodrome Forecast
Issued by NWS

Home | Current Version | Previous Version | Text Only | Print | Product List | Glossary On
Versions: 1 2 3 4 5 6 7 8 9 10 11 12 13
494
FTUS46 KMTR 191120
TAFSJC
TAF
KSJC 191120Z 1912/2012 13006KT P6SM FEW008 SCT012
      TEMPO 1912/1916 BKN011
     FM191600 VRB04KT P6SM SKC
     FM192030 30011KT P6SM SKC
     FM200400 30005KT P6SM SKC
     FM200700 14003KT P6SM SCT011
     FM201100 VRB03KT P6SM BKN010=

USA.gov is the U.S. government's official web portal to all federal, state and local government web resources and services.